sensor_id;sensor_type;location;lat;lon;timestamp;temperature;humidity
9125;DHT22;4597;48.730;9.114;2023-04-25T00:02:00;10.00;99.90
9125;DHT22;4597;48.730;9.114;2023-04-25T00:04:25;10.10;99.90
9125;DHT22;4597;48.730;9.114;2023-04-25T00:06:53;10.00;99.90
9125;DHT22;4597;48.730;9.114;2023-04-25T00:09:19;9.90;99.90
9125;DHT22;4597;48.730;9.114;2023-04-25T00:11:45;10.00;99.90
9125;DHT22;4597;48.730;9.114;2023-04-25T00:14:10;10.00;99.90
9125;DHT22;4597;48.730;9.114;2023-04-25T00:16:36;9.90;99.90
9125;DHT22;4597;48.730;9.114;2023-04-25T00:19:02;9.80;99.90
9125;DHT22;4597;48.730;9.114;2023-04-25T00:21:28;9.80;99.90
9125;DHT22;4597;48.730;9.114;2023-04-25T00:23:54;9.60;99.90
9125;DHT22;4597;48.730;9.114;2023-04-25T00:26:20;9.50;99.90
9125;DHT22;4597;48.730;9.114;2023-04-25T00:28:46;9.50;99.90
9125;DHT22;4597;48.730;9.114;2023-04-25T00:31:12;9.50;99.90
9125;DHT22;4597;48.730;9.114;2023-04-25T00:33:38;9.50;99.90
9125;DHT22;4597;48.730;9.114;2023-04-25T00:36:03;9.60;99.90
9125;DHT22;4597;48.730;9.114;2023-04-25T00:38:29;9.60;99.90
9125;DHT22;4597;48.730;9.114;2023-04-25T00:40:54;9.80;99.90
9125;DHT22;4597;48.730;9.114;2023-04-25T00:43:21;9.70;99.90
9125;DHT22;4597;48.730;9.114;2023-04-25T00:45:47;9.70;99.90
9125;DHT22;4597;48.730;9.114;2023-04-25T00:48:14;9.70;99.90
9125;DHT22;4597;48.730;9.114;2023-04-25T00:50:40;9.80;99.90
9125;DHT22;4597;48.730;9.114;2023-04-25T00:53:06;9.70;99.90
9125;DHT22;4597;48.730;9.114;2023-04-25T00:55:32;9.70;99.90
9125;DHT22;4597;48.730;9.114;2023-04-25T00:57:59;9.70;99.90
9125;DHT22;4597;48.730;9.114;2023-04-25T01:00:25;9.70;99.90
9125;DHT22;4597;48.730;9.114;2023-04-25T01:02:51;9.70;99.90
9125;DHT22;4597;48.730;9.114;2023-04-25T01:05:17;9.70;99.90
9125;DHT22;4597;48.730;9.114;2023-04-25T01:07:44;9.60;99.90
9125;DHT22;4597;48.730;9.114;2023-04-25T01:10:10;9.60;99.90
9125;DHT22;4597;48.730;9.114;2023-04-25T01:12:36;9.60;99.90
9125;DHT22;4597;48.730;9.114;2023-04-25T01:15:02;9.60;99.90
9125;DHT22;4597;48.730;9.114;2023-04-25T01:17:28;9.70;99.90
9125;DHT22;4597;48.730;9.114;2023-04-25T01:19:54;9.70;99.90
9125;DHT22;4597;48.730;9.114;2023-04-25T01:22:20;9.50;99.90
9125;DHT22;4597;48.730;9.114;2023-04-25T01:24:46;9.50;99.90
9125;DHT22;4597;48.730;9.114;2023-04-25T01:27:12;9.50;99.90
9125;DHT22;4597;48.730;9.114;2023-04-25T01:29:38;9.50;99.90
9125;DHT22;4597;48.730;9.114;2023-04-25T01:32:05;9.40;99.90
9125;DHT22;4597;48.730;9.114;2023-04-25T01:34:31;9.50;99.90
9125;DHT22;4597;48.730;9.114;2023-04-25T01:36:59;9.50;99.90
9125;DHT22;4597;48.730;9.114;2023-04-25T01:39:25;9.40;99.90
9125;DHT22;4597;48.730;9.114;2023-04-25T01:41:50;9.50;99.90
9125;DHT22;4597;48.730;9.114;2023-04-25T01:44:16;9.50;99.90
9125;DHT22;4597;48.730;9.114;2023-04-25T01:46:42;9.50;99.90
9125;DHT22;4597;48.730;9.114;2023-04-25T01:49:07;9.50;99.90
9125;DHT22;4597;48.730;9.114;2023-04-25T01:51:33;9.50;99.90
9125;DHT22;4597;48.730;9.114;2023-04-25T01:53:59;9.40;99.90
9125;DHT22;4597;48.730;9.114;2023-04-25T01:56:29;9.40;99.90
9125;DHT22;4597;48.730;9.114;2023-04-25T01:58:55;9.30;99.90
9125;DHT22;4597;48.730;9.114;2023-04-25T02:01:21;9.30;99.90
9125;DHT22;4597;48.730;9.114;2023-04-25T02:03:46;9.30;99.90
9125;DHT22;4597;48.730;9.114;2023-04-25T02:06:12;9.30;99.90
9125;DHT22;4597;48.730;9.114;2023-04-25T02:08:37;9.20;99.90
9125;DHT22;4597;48.730;9.114;2023-04-25T02:11:03;9.30;99.90
9125;DHT22;4597;48.730;9.114;2023-04-25T02:13:28;9.30;99.90
9125;DHT22;4597;48.730;9.114;2023-04-25T02:15:54;9.30;99.90
9125;DHT22;4597;48.730;9.114;2023-04-25T02:18:19;9.30;99.90
9125;DHT22;4597;48.730;9.114;2023-04-25T02:20:46;9.30;99.90
9125;DHT22;4597;48.730;9.114;2023-04-25T02:23:12;9.30;99.90
9125;DHT22;4597;48.730;9.114;2023-04-25T02:25:37;9.30;99.90
9125;DHT22;4597;48.730;9.114;2023-04-25T02:28:03;9.40;99.90
9125;DHT22;4597;48.730;9.114;2023-04-25T02:30:29;9.40;99.90
9125;DHT22;4597;48.730;9.114;2023-04-25T02:32:54;9.40;99.90
9125;DHT22;4597;48.730;9.114;2023-04-25T02:35:20;9.40;99.90
9125;DHT22;4597;48.730;9.114;2023-04-25T02:37:46;9.40;99.90
9125;DHT22;4597;48.730;9.114;2023-04-25T02:40:11;9.30;99.90
9125;DHT22;4597;48.730;9.114;2023-04-25T02:42:37;9.20;99.90
9125;DHT22;4597;48.730;9.114;2023-04-25T02:45:02;9.20;99.90
9125;DHT22;4597;48.730;9.114;2023-04-25T02:47:29;9.30;99.90
9125;DHT22;4597;48.730;9.114;2023-04-25T02:49:54;9.20;99.90
9125;DHT22;4597;48.730;9.114;2023-04-25T02:52:20;9.20;99.90
9125;DHT22;4597;48.730;9.114;2023-04-25T02:54:46;9.20;99.90
9125;DHT22;4597;48.730;9.114;2023-04-25T02:57:12;9.10;99.90
9125;DHT22;4597;48.730;9.114;2023-04-25T02:59:37;9.10;99.90
9125;DHT22;4597;48.730;9.114;2023-04-25T03:02:03;9.10;99.90
9125;DHT22;4597;48.730;9.114;2023-04-25T03:04:28;9.00;99.90
9125;DHT22;4597;48.730;9.114;2023-04-25T03:06:54;9.00;99.90
9125;DHT22;4597;48.730;9.114;2023-04-25T03:09:20;9.00;99.90
9125;DHT22;4597;48.730;9.114;2023-04-25T03:11:46;9.00;99.90
9125;DHT22;4597;48.730;9.114;2023-04-25T03:14:12;9.00;99.90
9125;DHT22;4597;48.730;9.114;2023-04-25T03:16:38;9.10;99.90
9125;DHT22;4597;48.730;9.114;2023-04-25T03:19:04;9.10;99.90
9125;DHT22;4597;48.730;9.114;2023-04-25T03:21:31;9.00;99.90
9125;DHT22;4597;48.730;9.114;2023-04-25T03:23:57;9.10;99.90
9125;DHT22;4597;48.730;9.114;2023-04-25T03:26:23;9.10;99.90
9125;DHT22;4597;48.730;9.114;2023-04-25T03:28:49;9.10;99.90
9125;DHT22;4597;48.730;9.114;2023-04-25T03:31:14;9.10;99.90
9125;DHT22;4597;48.730;9.114;2023-04-25T03:33:40;9.10;99.90
9125;DHT22;4597;48.730;9.114;2023-04-25T03:36:05;9.10;99.90
9125;DHT22;4597;48.730;9.114;2023-04-25T03:38:31;9.10;99.90
9125;DHT22;4597;48.730;9.114;2023-04-25T03:40:57;9.00;99.90
9125;DHT22;4597;48.730;9.114;2023-04-25T03:43:22;9.10;99.90
9125;DHT22;4597;48.730;9.114;2023-04-25T03:45:48;9.10;99.90
9125;DHT22;4597;48.730;9.114;2023-04-25T03:48:13;9.10;99.90
9125;DHT22;4597;48.730;9.114;2023-04-25T03:50:39;9.10;99.90
9125;DHT22;4597;48.730;9.114;2023-04-25T03:53:04;9.10;99.90
9125;DHT22;4597;48.730;9.114;2023-04-25T03:55:30;9.10;99.90
9125;DHT22;4597;48.730;9.114;2023-04-25T03:57:57;9.10;99.90
9125;DHT22;4597;48.730;9.114;2023-04-25T04:00:23;9.10;99.90
9125;DHT22;4597;48.730;9.114;2023-04-25T04:02:49;9.10;99.90
9125;DHT22;4597;48.730;9.114;2023-04-25T04:05:14;9.10;99.90
9125;DHT22;4597;48.730;9.114;2023-04-25T04:07:40;9.10;99.90
9125;DHT22;4597;48.730;9.114;2023-04-25T04:10:08;9.00;99.90
9125;DHT22;4597;48.730;9.114;2023-04-25T04:12:34;9.00;99.90
9125;DHT22;4597;48.730;9.114;2023-04-25T04:14:59;9.10;99.90
9125;DHT22;4597;48.730;9.114;2023-04-25T04:17:25;9.00;99.90
9125;DHT22;4597;48.730;9.114;2023-04-25T04:19:51;9.00;99.90
9125;DHT22;4597;48.730;9.114;2023-04-25T04:22:16;9.00;99.90
9125;DHT22;4597;48.730;9.114;2023-04-25T04:24:42;9.00;99.90
9125;DHT22;4597;48.730;9.114;2023-04-25T04:27:11;8.80;99.90
9125;DHT22;4597;48.730;9.114;2023-04-25T04:29:38;8.90;99.90
9125;DHT22;4597;48.730;9.114;2023-04-25T04:32:03;9.00;99.90
9125;DHT22;4597;48.730;9.114;2023-04-25T04:34:30;9.00;99.90
9125;DHT22;4597;48.730;9.114;2023-04-25T04:36:56;8.90;99.90
9125;DHT22;4597;48.730;9.114;2023-04-25T04:39:22;8.90;99.90
9125;DHT22;4597;48.730;9.114;2023-04-25T04:41:47;8.90;99.90
9125;DHT22;4597;48.730;9.114;2023-04-25T04:44:13;8.90;99.90
9125;DHT22;4597;48.730;9.114;2023-04-25T04:46:39;8.80;99.90
9125;DHT22;4597;48.730;9.114;2023-04-25T04:49:06;8.80;99.90
9125;DHT22;4597;48.730;9.114;2023-04-25T04:51:31;8.80;99.90
9125;DHT22;4597;48.730;9.114;2023-04-25T04:53:58;8.80;99.90
9125;DHT22;4597;48.730;9.114;2023-04-25T04:56:30;8.90;99.90
9125;DHT22;4597;48.730;9.114;2023-04-25T04:58:59;8.80;99.90
9125;DHT22;4597;48.730;9.114;2023-04-25T05:01:25;8.90;99.90
9125;DHT22;4597;48.730;9.114;2023-04-25T05:03:51;8.90;99.90
9125;DHT22;4597;48.730;9.114;2023-04-25T05:06:19;8.90;99.90
9125;DHT22;4597;48.730;9.114;2023-04-25T05:08:44;8.80;99.90
9125;DHT22;4597;48.730;9.114;2023-04-25T05:11:10;8.90;99.90
9125;DHT22;4597;48.730;9.114;2023-04-25T05:13:36;8.90;99.90
9125;DHT22;4597;48.730;9.114;2023-04-25T05:16:02;8.90;99.90
9125;DHT22;4597;48.730;9.114;2023-04-25T05:18:27;9.00;99.90
9125;DHT22;4597;48.730;9.114;2023-04-25T05:20:53;9.00;99.90
9125;DHT22;4597;48.730;9.114;2023-04-25T05:23:18;8.90;99.90
9125;DHT22;4597;48.730;9.114;2023-04-25T05:25:44;9.00;99.90
9125;DHT22;4597;48.730;9.114;2023-04-25T05:28:12;9.10;99.90
9125;DHT22;4597;48.730;9.114;2023-04-25T05:30:37;9.10;99.90
9125;DHT22;4597;48.730;9.114;2023-04-25T05:33:03;9.10;99.90
9125;DHT22;4597;48.730;9.114;2023-04-25T05:35:28;9.20;99.90
9125;DHT22;4597;48.730;9.114;2023-04-25T05:37:54;9.10;99.90
9125;DHT22;4597;48.730;9.114;2023-04-25T05:40:20;9.10;99.90
9125;DHT22;4597;48.730;9.114;2023-04-25T05:42:45;9.10;99.90
9125;DHT22;4597;48.730;9.114;2023-04-25T05:45:11;9.20;99.90
9125;DHT22;4597;48.730;9.114;2023-04-25T05:47:36;9.20;99.90
9125;DHT22;4597;48.730;9.114;2023-04-25T05:50:02;9.20;99.90
9125;DHT22;4597;48.730;9.114;2023-04-25T05:52:28;9.40;99.90
9125;DHT22;4597;48.730;9.114;2023-04-25T05:54:53;9.40;99.90
9125;DHT22;4597;48.730;9.114;2023-04-25T05:57:23;9.40;99.90
9125;DHT22;4597;48.730;9.114;2023-04-25T05:59:49;9.50;99.90
9125;DHT22;4597;48.730;9.114;2023-04-25T06:02:14;9.50;99.90
9125;DHT22;4597;48.730;9.114;2023-04-25T06:04:40;9.60;99.90
9125;DHT22;4597;48.730;9.114;2023-04-25T06:07:06;9.70;99.90
9125;DHT22;4597;48.730;9.114;2023-04-25T06:09:31;9.80;99.90
9125;DHT22;4597;48.730;9.114;2023-04-25T06:11:57;9.90;99.90
9125;DHT22;4597;48.730;9.114;2023-04-25T06:14:22;9.90;99.90
9125;DHT22;4597;48.730;9.114;2023-04-25T06:16:48;10.00;99.90
9125;DHT22;4597;48.730;9.114;2023-04-25T06:19:13;10.00;99.90
9125;DHT22;4597;48.730;9.114;2023-04-25T06:21:38;10.00;99.90
9125;DHT22;4597;48.730;9.114;2023-04-25T06:24:04;10.00;99.90
9125;DHT22;4597;48.730;9.114;2023-04-25T06:26:30;10.10;99.90
9125;DHT22;4597;48.730;9.114;2023-04-25T06:28:55;10.00;99.90
9125;DHT22;4597;48.730;9.114;2023-04-25T06:31:21;10.10;99.90
9125;DHT22;4597;48.730;9.114;2023-04-25T06:33:46;10.20;99.90
9125;DHT22;4597;48.730;9.114;2023-04-25T06:36:13;10.10;99.90
9125;DHT22;4597;48.730;9.114;2023-04-25T06:38:39;10.10;99.90
9125;DHT22;4597;48.730;9.114;2023-04-25T06:41:04;10.00;99.90
9125;DHT22;4597;48.730;9.114;2023-04-25T06:43:30;10.10;99.90
9125;DHT22;4597;48.730;9.114;2023-04-25T06:45:59;10.10;99.90
9125;DHT22;4597;48.730;9.114;2023-04-25T06:48:25;10.00;99.90
9125;DHT22;4597;48.730;9.114;2023-04-25T06:50:51;10.00;99.90
9125;DHT22;4597;48.730;9.114;2023-04-25T06:53:16;10.00;99.90
9125;DHT22;4597;48.730;9.114;2023-04-25T06:55:42;9.90;99.90
9125;DHT22;4597;48.730;9.114;2023-04-25T06:58:07;9.70;99.90
9125;DHT22;4597;48.730;9.114;2023-04-25T07:00:33;9.60;99.90
9125;DHT22;4597;48.730;9.114;2023-04-25T07:02:58;9.60;99.90
9125;DHT22;4597;48.730;9.114;2023-04-25T07:05:24;9.60;99.90
9125;DHT22;4597;48.730;9.114;2023-04-25T07:07:49;9.60;99.90
9125;DHT22;4597;48.730;9.114;2023-04-25T07:10:15;9.60;99.90
9125;DHT22;4597;48.730;9.114;2023-04-25T07:12:40;9.60;99.90
9125;DHT22;4597;48.730;9.114;2023-04-25T07:15:07;9.60;99.90
9125;DHT22;4597;48.730;9.114;2023-04-25T07:17:35;9.50;99.90
9125;DHT22;4597;48.730;9.114;2023-04-25T07:20:00;9.40;99.90
9125;DHT22;4597;48.730;9.114;2023-04-25T07:22:26;9.40;99.90
9125;DHT22;4597;48.730;9.114;2023-04-25T07:24:51;9.40;99.90
9125;DHT22;4597;48.730;9.114;2023-04-25T07:27:18;9.30;99.90
9125;DHT22;4597;48.730;9.114;2023-04-25T07:29:44;9.30;99.90
9125;DHT22;4597;48.730;9.114;2023-04-25T07:32:09;9.30;99.90
9125;DHT22;4597;48.730;9.114;2023-04-25T07:34:37;9.30;99.90
9125;DHT22;4597;48.730;9.114;2023-04-25T07:37:04;9.30;99.90
9125;DHT22;4597;48.730;9.114;2023-04-25T07:39:31;9.30;99.90
9125;DHT22;4597;48.730;9.114;2023-04-25T07:41:56;9.20;99.90
9125;DHT22;4597;48.730;9.114;2023-04-25T07:44:24;9.10;99.90
9125;DHT22;4597;48.730;9.114;2023-04-25T07:46:49;9.20;99.90
9125;DHT22;4597;48.730;9.114;2023-04-25T07:49:15;9.10;99.90
9125;DHT22;4597;48.730;9.114;2023-04-25T07:51:41;9.20;99.90
9125;DHT22;4597;48.730;9.114;2023-04-25T07:54:09;9.30;99.90
9125;DHT22;4597;48.730;9.114;2023-04-25T07:56:34;9.50;99.90
9125;DHT22;4597;48.730;9.114;2023-04-25T07:59:00;9.70;99.90
9125;DHT22;4597;48.730;9.114;2023-04-25T08:01:26;9.80;99.90
9125;DHT22;4597;48.730;9.114;2023-04-25T08:03:52;9.80;99.90
9125;DHT22;4597;48.730;9.114;2023-04-25T08:06:18;9.90;99.90
9125;DHT22;4597;48.730;9.114;2023-04-25T08:08:43;10.00;99.90
9125;DHT22;4597;48.730;9.114;2023-04-25T08:11:09;10.10;99.90
9125;DHT22;4597;48.730;9.114;2023-04-25T08:13:34;10.10;99.90
9125;DHT22;4597;48.730;9.114;2023-04-25T08:16:00;10.20;99.90
9125;DHT22;4597;48.730;9.114;2023-04-25T08:18:25;10.20;99.90
9125;DHT22;4597;48.730;9.114;2023-04-25T08:20:51;10.20;99.90
9125;DHT22;4597;48.730;9.114;2023-04-25T08:23:17;10.10;99.90
9125;DHT22;4597;48.730;9.114;2023-04-25T08:25:42;10.00;99.90
9125;DHT22;4597;48.730;9.114;2023-04-25T08:28:08;10.00;99.90
9125;DHT22;4597;48.730;9.114;2023-04-25T08:30:33;9.90;99.90
9125;DHT22;4597;48.730;9.114;2023-04-25T08:32:59;10.00;99.90
9125;DHT22;4597;48.730;9.114;2023-04-25T08:35:24;10.00;99.90
9125;DHT22;4597;48.730;9.114;2023-04-25T08:37:50;10.10;99.90
9125;DHT22;4597;48.730;9.114;2023-04-25T08:40:16;10.00;99.90
9125;DHT22;4597;48.730;9.114;2023-04-25T08:42:42;10.00;99.90
9125;DHT22;4597;48.730;9.114;2023-04-25T08:45:09;10.00;99.90
9125;DHT22;4597;48.730;9.114;2023-04-25T08:47:35;10.10;99.90
9125;DHT22;4597;48.730;9.114;2023-04-25T08:50:03;9.90;99.90
9125;DHT22;4597;48.730;9.114;2023-04-25T08:52:35;9.90;99.90
9125;DHT22;4597;48.730;9.114;2023-04-25T08:55:01;9.80;99.90
9125;DHT22;4597;48.730;9.114;2023-04-25T08:57:27;9.80;99.90
9125;DHT22;4597;48.730;9.114;2023-04-25T08:59:54;9.80;99.90
9125;DHT22;4597;48.730;9.114;2023-04-25T09:02:20;9.70;99.90
9125;DHT22;4597;48.730;9.114;2023-04-25T09:04:46;9.80;99.90
9125;DHT22;4597;48.730;9.114;2023-04-25T09:07:12;9.90;99.90
9125;DHT22;4597;48.730;9.114;2023-04-25T09:09:40;9.90;99.90
9125;DHT22;4597;48.730;9.114;2023-04-25T09:12:07;10.00;99.90
9125;DHT22;4597;48.730;9.114;2023-04-25T09:14:33;10.20;99.90
9125;DHT22;4597;48.730;9.114;2023-04-25T09:17:03;10.30;99.90
9125;DHT22;4597;48.730;9.114;2023-04-25T09:19:35;10.20;99.90
9125;DHT22;4597;48.730;9.114;2023-04-25T09:22:02;10.10;99.90
9125;DHT22;4597;48.730;9.114;2023-04-25T09:26:56;10.00;99.90
9125;DHT22;4597;48.730;9.114;2023-04-25T09:29:32;10.00;99.90
9125;DHT22;4597;48.730;9.114;2023-04-25T09:34:43;10.00;99.90
9125;DHT22;4597;48.730;9.114;2023-04-25T09:37:10;9.90;99.90
9125;DHT22;4597;48.730;9.114;2023-04-25T09:39:37;9.60;99.90
9125;DHT22;4597;48.730;9.114;2023-04-25T09:42:04;9.50;99.90
9125;DHT22;4597;48.730;9.114;2023-04-25T09:44:30;9.20;99.90
9125;DHT22;4597;48.730;9.114;2023-04-25T09:46:55;8.90;99.90
9125;DHT22;4597;48.730;9.114;2023-04-25T09:49:22;8.70;99.90
9125;DHT22;4597;48.730;9.114;2023-04-25T09:51:58;8.50;99.90
9125;DHT22;4597;48.730;9.114;2023-04-25T09:54:24;8.50;99.90
9125;DHT22;4597;48.730;9.114;2023-04-25T09:56:52;8.40;99.90
9125;DHT22;4597;48.730;9.114;2023-04-25T09:59:20;8.60;99.90
9125;DHT22;4597;48.730;9.114;2023-04-25T10:01:48;8.60;99.90
9125;DHT22;4597;48.730;9.114;2023-04-25T10:04:19;8.70;99.90
9125;DHT22;4597;48.730;9.114;2023-04-25T10:06:46;8.60;99.90
9125;DHT22;4597;48.730;9.114;2023-04-25T10:09:14;8.60;99.90
9125;DHT22;4597;48.730;9.114;2023-04-25T10:11:41;8.50;99.90
9125;DHT22;4597;48.730;9.114;2023-04-25T10:14:06;8.40;99.90
9125;DHT22;4597;48.730;9.114;2023-04-25T10:16:32;8.30;99.90
9125;DHT22;4597;48.730;9.114;2023-04-25T10:18:58;8.40;99.90
9125;DHT22;4597;48.730;9.114;2023-04-25T10:21:24;8.40;99.90
9125;DHT22;4597;48.730;9.114;2023-04-25T10:23:52;8.50;99.90
9125;DHT22;4597;48.730;9.114;2023-04-25T10:26:18;8.50;99.90
9125;DHT22;4597;48.730;9.114;2023-04-25T10:29:01;8.60;99.90
9125;DHT22;4597;48.730;9.114;2023-04-25T10:31:27;8.70;99.90
9125;DHT22;4597;48.730;9.114;2023-04-25T10:33:53;8.70;99.90
9125;DHT22;4597;48.730;9.114;2023-04-25T10:36:20;8.70;99.90
9125;DHT22;4597;48.730;9.114;2023-04-25T10:38:48;8.80;99.90
9125;DHT22;4597;48.730;9.114;2023-04-25T10:41:14;9.00;99.90
9125;DHT22;4597;48.730;9.114;2023-04-25T10:43:41;9.00;99.90
9125;DHT22;4597;48.730;9.114;2023-04-25T10:46:28;9.10;99.90
9125;DHT22;4597;48.730;9.114;2023-04-25T10:49:01;9.00;99.90
9125;DHT22;4597;48.730;9.114;2023-04-25T10:51:28;9.00;99.90
9125;DHT22;4597;48.730;9.114;2023-04-25T10:56:36;8.90;99.90
9125;DHT22;4597;48.730;9.114;2023-04-25T10:59:13;9.00;99.90
9125;DHT22;4597;48.730;9.114;2023-04-25T11:01:44;9.00;99.90
9125;DHT22;4597;48.730;9.114;2023-04-25T11:04:20;8.90;99.90
9125;DHT22;4597;48.730;9.114;2023-04-25T11:07:07;8.90;99.90
9125;DHT22;4597;48.730;9.114;2023-04-25T11:09:38;9.00;99.90
9125;DHT22;4597;48.730;9.114;2023-04-25T11:12:06;8.90;99.90
9125;DHT22;4597;48.730;9.114;2023-04-25T11:14:32;9.00;99.90
9125;DHT22;4597;48.730;9.114;2023-04-25T11:16:58;9.00;99.90
9125;DHT22;4597;48.730;9.114;2023-04-25T11:19:25;9.00;99.90
9125;DHT22;4597;48.730;9.114;2023-04-25T11:21:54;9.10;99.90
9125;DHT22;4597;48.730;9.114;2023-04-25T11:24:21;9.20;99.90
9125;DHT22;4597;48.730;9.114;2023-04-25T11:26:50;9.20;99.90
9125;DHT22;4597;48.730;9.114;2023-04-25T11:29:16;9.20;99.90
9125;DHT22;4597;48.730;9.114;2023-04-25T11:31:44;9.10;99.90
9125;DHT22;4597;48.730;9.114;2023-04-25T11:34:11;8.90;99.90
9125;DHT22;4597;48.730;9.114;2023-04-25T11:36:38;9.00;99.90
9125;DHT22;4597;48.730;9.114;2023-04-25T11:39:04;9.10;99.90
9125;DHT22;4597;48.730;9.114;2023-04-25T11:41:31;9.10;99.90
9125;DHT22;4597;48.730;9.114;2023-04-25T11:43:56;9.20;99.90
9125;DHT22;4597;48.730;9.114;2023-04-25T11:46:22;9.40;99.90
9125;DHT22;4597;48.730;9.114;2023-04-25T11:48:47;9.50;99.90
9125;DHT22;4597;48.730;9.114;2023-04-25T11:51:13;9.70;99.90
9125;DHT22;4597;48.730;9.114;2023-04-25T11:53:41;9.70;99.90
9125;DHT22;4597;48.730;9.114;2023-04-25T11:56:11;9.60;99.90
9125;DHT22;4597;48.730;9.114;2023-04-25T12:01:30;9.90;99.90
9125;DHT22;4597;48.730;9.114;2023-04-25T12:03:57;10.00;99.90
9125;DHT22;4597;48.730;9.114;2023-04-25T12:06:29;10.00;99.90
9125;DHT22;4597;48.730;9.114;2023-04-25T12:09:06;10.10;99.90
9125;DHT22;4597;48.730;9.114;2023-04-25T12:11:32;10.20;99.90
9125;DHT22;4597;48.730;9.114;2023-04-25T12:14:04;10.30;99.90
9125;DHT22;4597;48.730;9.114;2023-04-25T12:16:46;10.50;99.90
9125;DHT22;4597;48.730;9.114;2023-04-25T12:19:15;10.80;99.90
9125;DHT22;4597;48.730;9.114;2023-04-25T12:21:42;10.90;99.90
9125;DHT22;4597;48.730;9.114;2023-04-25T12:24:22;10.90;99.90
9125;DHT22;4597;48.730;9.114;2023-04-25T12:27:06;10.80;99.90
9125;DHT22;4597;48.730;9.114;2023-04-25T12:29:33;10.80;99.90
9125;DHT22;4597;48.730;9.114;2023-04-25T12:31:59;10.70;99.90
9125;DHT22;4597;48.730;9.114;2023-04-25T12:34:27;10.40;99.90
9125;DHT22;4597;48.730;9.114;2023-04-25T12:36:52;10.20;99.90
9125;DHT22;4597;48.730;9.114;2023-04-25T12:39:23;10.00;99.90
9125;DHT22;4597;48.730;9.114;2023-04-25T12:41:49;9.70;99.90
9125;DHT22;4597;48.730;9.114;2023-04-25T12:44:15;9.50;99.90
9125;DHT22;4597;48.730;9.114;2023-04-25T12:46:41;9.50;99.90
9125;DHT22;4597;48.730;9.114;2023-04-25T12:49:07;9.40;99.90
9125;DHT22;4597;48.730;9.114;2023-04-25T12:51:34;9.40;99.90
9125;DHT22;4597;48.730;9.114;2023-04-25T12:54:01;9.50;99.90
9125;DHT22;4597;48.730;9.114;2023-04-25T12:56:27;9.60;99.90
9125;DHT22;4597;48.730;9.114;2023-04-25T12:58:53;9.80;99.90
9125;DHT22;4597;48.730;9.114;2023-04-25T13:01:20;10.00;99.90
9125;DHT22;4597;48.730;9.114;2023-04-25T13:03:46;10.40;99.90
9125;DHT22;4597;48.730;9.114;2023-04-25T13:06:11;10.80;99.90
9125;DHT22;4597;48.730;9.114;2023-04-25T13:08:38;10.80;99.90
9125;DHT22;4597;48.730;9.114;2023-04-25T13:11:04;10.90;99.90
9125;DHT22;4597;48.730;9.114;2023-04-25T13:13:30;10.90;99.90
9125;DHT22;4597;48.730;9.114;2023-04-25T13:15:57;11.10;99.90
9125;DHT22;4597;48.730;9.114;2023-04-25T13:18:22;11.20;99.90
9125;DHT22;4597;48.730;9.114;2023-04-25T13:20:52;11.40;99.90
9125;DHT22;4597;48.730;9.114;2023-04-25T13:23:17;11.70;99.90
9125;DHT22;4597;48.730;9.114;2023-04-25T13:25:43;11.80;99.90
9125;DHT22;4597;48.730;9.114;2023-04-25T13:28:08;11.60;99.90
9125;DHT22;4597;48.730;9.114;2023-04-25T13:30:34;11.70;99.90
9125;DHT22;4597;48.730;9.114;2023-04-25T13:32:59;11.90;99.90
9125;DHT22;4597;48.730;9.114;2023-04-25T13:35:29;11.80;99.90
9125;DHT22;4597;48.730;9.114;2023-04-25T13:37:55;11.90;99.90
9125;DHT22;4597;48.730;9.114;2023-04-25T13:40:21;11.80;99.90
9125;DHT22;4597;48.730;9.114;2023-04-25T13:42:47;11.70;99.90
9125;DHT22;4597;48.730;9.114;2023-04-25T13:45:12;11.80;99.90
9125;DHT22;4597;48.730;9.114;2023-04-25T13:47:38;11.80;99.90
9125;DHT22;4597;48.730;9.114;2023-04-25T13:50:04;11.70;99.90
9125;DHT22;4597;48.730;9.114;2023-04-25T13:52:33;11.60;99.90
9125;DHT22;4597;48.730;9.114;2023-04-25T13:54:59;11.70;99.90
9125;DHT22;4597;48.730;9.114;2023-04-25T13:57:25;11.80;99.90
9125;DHT22;4597;48.730;9.114;2023-04-25T13:59:51;11.60;99.90
9125;DHT22;4597;48.730;9.114;2023-04-25T14:02:17;11.80;99.90
9125;DHT22;4597;48.730;9.114;2023-04-25T14:04:43;11.80;99.90
9125;DHT22;4597;48.730;9.114;2023-04-25T14:07:08;12.00;99.90
9125;DHT22;4597;48.730;9.114;2023-04-25T14:09:34;12.10;99.90
9125;DHT22;4597;48.730;9.114;2023-04-25T14:12:00;12.30;99.90
9125;DHT22;4597;48.730;9.114;2023-04-25T14:14:25;12.20;99.90
9125;DHT22;4597;48.730;9.114;2023-04-25T14:16:51;12.50;99.90
9125;DHT22;4597;48.730;9.114;2023-04-25T14:19:20;12.50;99.90
9125;DHT22;4597;48.730;9.114;2023-04-25T14:21:45;12.60;99.90
9125;DHT22;4597;48.730;9.114;2023-04-25T14:24:11;12.30;99.90
9125;DHT22;4597;48.730;9.114;2023-04-25T14:26:37;12.10;99.90
9125;DHT22;4597;48.730;9.114;2023-04-25T14:29:04;11.90;99.90
9125;DHT22;4597;48.730;9.114;2023-04-25T14:31:31;12.10;99.90
9125;DHT22;4597;48.730;9.114;2023-04-25T14:33:57;12.40;99.90
9125;DHT22;4597;48.730;9.114;2023-04-25T14:36:22;12.70;99.90
9125;DHT22;4597;48.730;9.114;2023-04-25T14:38:48;12.60;99.90
9125;DHT22;4597;48.730;9.114;2023-04-25T14:41:13;13.00;99.90
9125;DHT22;4597;48.730;9.114;2023-04-25T14:43:39;13.40;99.90
9125;DHT22;4597;48.730;9.114;2023-04-25T14:46:07;13.90;99.90
9125;DHT22;4597;48.730;9.114;2023-04-25T14:48:34;14.10;99.90
9125;DHT22;4597;48.730;9.114;2023-04-25T14:50:59;13.50;99.90
9125;DHT22;4597;48.730;9.114;2023-04-25T14:53:26;13.10;99.90
9125;DHT22;4597;48.730;9.114;2023-04-25T14:55:52;13.10;99.90
9125;DHT22;4597;48.730;9.114;2023-04-25T14:58:17;14.10;99.90
9125;DHT22;4597;48.730;9.114;2023-04-25T15:00:43;14.50;99.90
9125;DHT22;4597;48.730;9.114;2023-04-25T15:03:09;14.30;99.90
9125;DHT22;4597;48.730;9.114;2023-04-25T15:05:37;13.70;99.90
9125;DHT22;4597;48.730;9.114;2023-04-25T15:08:02;14.50;99.90
9125;DHT22;4597;48.730;9.114;2023-04-25T15:10:28;15.30;99.90
9125;DHT22;4597;48.730;9.114;2023-04-25T15:12:54;16.40;96.90
9125;DHT22;4597;48.730;9.114;2023-04-25T15:15:19;17.40;93.60
9125;DHT22;4597;48.730;9.114;2023-04-25T15:17:45;16.70;87.30
9125;DHT22;4597;48.730;9.114;2023-04-25T15:20:13;16.20;90.20
9125;DHT22;4597;48.730;9.114;2023-04-25T15:22:39;15.50;93.20
9125;DHT22;4597;48.730;9.114;2023-04-25T15:25:06;14.60;93.90
9125;DHT22;4597;48.730;9.114;2023-04-25T15:27:33;14.20;96.60
9125;DHT22;4597;48.730;9.114;2023-04-25T15:30:04;14.30;97.50
9125;DHT22;4597;48.730;9.114;2023-04-25T15:32:30;14.40;98.80
9125;DHT22;4597;48.730;9.114;2023-04-25T15:34:56;14.10;99.20
9125;DHT22;4597;48.730;9.114;2023-04-25T15:37:21;13.90;99.90
9125;DHT22;4597;48.730;9.114;2023-04-25T15:39:47;13.30;99.90
9125;DHT22;4597;48.730;9.114;2023-04-25T15:42:12;13.20;99.90
9125;DHT22;4597;48.730;9.114;2023-04-25T15:44:38;13.10;99.90
9125;DHT22;4597;48.730;9.114;2023-04-25T15:47:04;13.10;99.90
9125;DHT22;4597;48.730;9.114;2023-04-25T15:49:29;13.00;99.90
9125;DHT22;4597;48.730;9.114;2023-04-25T15:51:55;12.90;99.90
9125;DHT22;4597;48.730;9.114;2023-04-25T15:54:21;12.70;99.90
9125;DHT22;4597;48.730;9.114;2023-04-25T15:56:47;12.50;99.90
9125;DHT22;4597;48.730;9.114;2023-04-25T15:59:12;12.40;99.90
9125;DHT22;4597;48.730;9.114;2023-04-25T16:01:38;12.40;99.90
9125;DHT22;4597;48.730;9.114;2023-04-25T16:04:04;12.20;99.90
9125;DHT22;4597;48.730;9.114;2023-04-25T16:06:30;12.20;99.90
9125;DHT22;4597;48.730;9.114;2023-04-25T16:08:56;12.20;99.90
9125;DHT22;4597;48.730;9.114;2023-04-25T16:11:22;12.10;99.90
9125;DHT22;4597;48.730;9.114;2023-04-25T16:13:47;12.00;99.90
9125;DHT22;4597;48.730;9.114;2023-04-25T16:16:13;12.00;99.90
9125;DHT22;4597;48.730;9.114;2023-04-25T16:18:40;11.90;99.90